sensor_id;sensor_type;location;lat;lon;timestamp;temperature;humidity
53776;DHT22;44276;49.534;6.378;2024-01-25T00:02:27;7.90;99.90
53776;DHT22;44276;49.534;6.378;2024-01-25T00:04:57;7.80;99.90
53776;DHT22;44276;49.534;6.378;2024-01-25T00:07:26;7.60;99.90
53776;DHT22;44276;49.534;6.378;2024-01-25T00:09:54;7.50;99.90
53776;DHT22;44276;49.534;6.378;2024-01-25T00:12:24;7.50;99.90
53776;DHT22;44276;49.534;6.378;2024-01-25T00:14:54;7.60;99.90
53776;DHT22;44276;49.534;6.378;2024-01-25T00:17:22;7.60;99.90
53776;DHT22;44276;49.534;6.378;2024-01-25T00:19:50;7.60;99.90
53776;DHT22;44276;49.534;6.378;2024-01-25T00:22:20;7.50;99.90
53776;DHT22;44276;49.534;6.378;2024-01-25T00:24:49;7.60;99.90
53776;DHT22;44276;49.534;6.378;2024-01-25T00:27:17;7.60;99.90
53776;DHT22;44276;49.534;6.378;2024-01-25T00:29:45;7.60;99.90
53776;DHT22;44276;49.534;6.378;2024-01-25T00:32:14;7.60;99.90
53776;DHT22;44276;49.534;6.378;2024-01-25T00:34:42;7.50;99.90
53776;DHT22;44276;49.534;6.378;2024-01-25T00:37:11;7.40;99.90
53776;DHT22;44276;49.534;6.378;2024-01-25T00:39:42;7.30;99.90
53776;DHT22;44276;49.534;6.378;2024-01-25T00:42:13;7.20;99.90
53776;DHT22;44276;49.534;6.378;2024-01-25T00:44:42;7.20;99.90
53776;DHT22;44276;49.534;6.378;2024-01-25T00:47:11;7.20;99.90
53776;DHT22;44276;49.534;6.378;2024-01-25T00:49:40;7.20;99.90
53776;DHT22;44276;49.534;6.378;2024-01-25T00:52:10;7.30;99.90
53776;DHT22;44276;49.534;6.378;2024-01-25T00:54:41;7.30;99.90
53776;DHT22;44276;49.534;6.378;2024-01-25T00:57:11;7.40;99.90
53776;DHT22;44276;49.534;6.378;2024-01-25T00:59:40;7.50;99.90
53776;DHT22;44276;49.534;6.378;2024-01-25T01:02:12;7.70;99.90
53776;DHT22;44276;49.534;6.378;2024-01-25T01:04:41;7.70;99.90
53776;DHT22;44276;49.534;6.378;2024-01-25T01:07:15;7.70;99.90
53776;DHT22;44276;49.534;6.378;2024-01-25T01:09:45;7.70;99.90
53776;DHT22;44276;49.534;6.378;2024-01-25T01:12:13;7.70;99.90
53776;DHT22;44276;49.534;6.378;2024-01-25T01:14:41;7.70;99.90
53776;DHT22;44276;49.534;6.378;2024-01-25T01:17:10;7.80;99.90
53776;DHT22;44276;49.534;6.378;2024-01-25T01:19:38;7.60;99.90
53776;DHT22;44276;49.534;6.378;2024-01-25T01:22:06;7.60;99.90
53776;DHT22;44276;49.534;6.378;2024-01-25T01:24:35;7.40;99.90
53776;DHT22;44276;49.534;6.378;2024-01-25T01:27:05;7.50;99.90
53776;DHT22;44276;49.534;6.378;2024-01-25T01:29:33;7.40;99.90
53776;DHT22;44276;49.534;6.378;2024-01-25T01:32:01;7.50;99.90
53776;DHT22;44276;49.534;6.378;2024-01-25T01:34:29;7.50;99.90
53776;DHT22;44276;49.534;6.378;2024-01-25T01:36:58;7.60;99.90
53776;DHT22;44276;49.534;6.378;2024-01-25T01:39:26;7.60;99.90
53776;DHT22;44276;49.534;6.378;2024-01-25T01:41:54;7.60;99.90
53776;DHT22;44276;49.534;6.378;2024-01-25T01:44:24;7.70;99.90
53776;DHT22;44276;49.534;6.378;2024-01-25T01:46:52;7.80;99.90
53776;DHT22;44276;49.534;6.378;2024-01-25T01:49:21;7.90;99.90
53776;DHT22;44276;49.534;6.378;2024-01-25T01:51:50;7.90;99.90
53776;DHT22;44276;49.534;6.378;2024-01-25T01:54:19;7.80;99.90
53776;DHT22;44276;49.534;6.378;2024-01-25T01:56:48;7.70;99.90
53776;DHT22;44276;49.534;6.378;2024-01-25T01:59:17;7.70;99.90
53776;DHT22;44276;49.534;6.378;2024-01-25T02:01:47;7.70;99.90
53776;DHT22;44276;49.534;6.378;2024-01-25T02:04:16;7.70;99.90
53776;DHT22;44276;49.534;6.378;2024-01-25T02:06:44;7.60;99.90
53776;DHT22;44276;49.534;6.378;2024-01-25T02:09:13;7.70;99.90
53776;DHT22;44276;49.534;6.378;2024-01-25T02:11:41;7.80;99.90
53776;DHT22;44276;49.534;6.378;2024-01-25T02:14:10;8.00;99.90
53776;DHT22;44276;49.534;6.378;2024-01-25T02:16:38;8.00;99.90
53776;DHT22;44276;49.534;6.378;2024-01-25T02:19:13;8.10;99.90
53776;DHT22;44276;49.534;6.378;2024-01-25T02:21:42;8.10;99.90
53776;DHT22;44276;49.534;6.378;2024-01-25T02:24:11;8.10;99.90
53776;DHT22;44276;49.534;6.378;2024-01-25T02:26:40;8.20;99.90
53776;DHT22;44276;49.534;6.378;2024-01-25T02:29:08;8.20;99.90
53776;DHT22;44276;49.534;6.378;2024-01-25T02:31:36;8.30;99.90
53776;DHT22;44276;49.534;6.378;2024-01-25T02:34:04;8.40;99.90
53776;DHT22;44276;49.534;6.378;2024-01-25T02:36:33;8.40;99.90
53776;DHT22;44276;49.534;6.378;2024-01-25T02:39:01;8.40;99.90
53776;DHT22;44276;49.534;6.378;2024-01-25T02:41:32;8.40;99.90
53776;DHT22;44276;49.534;6.378;2024-01-25T02:44:01;8.30;99.90
53776;DHT22;44276;49.534;6.378;2024-01-25T02:46:29;8.30;99.90
53776;DHT22;44276;49.534;6.378;2024-01-25T02:48:57;8.30;99.90
53776;DHT22;44276;49.534;6.378;2024-01-25T02:51:26;8.30;99.90
53776;DHT22;44276;49.534;6.378;2024-01-25T02:53:54;8.40;99.90
53776;DHT22;44276;49.534;6.378;2024-01-25T02:56:22;8.50;99.90
53776;DHT22;44276;49.534;6.378;2024-01-25T02:58:52;8.50;99.90
53776;DHT22;44276;49.534;6.378;2024-01-25T03:01:20;8.50;99.90
53776;DHT22;44276;49.534;6.378;2024-01-25T03:03:48;8.50;99.90
53776;DHT22;44276;49.534;6.378;2024-01-25T03:06:17;8.50;99.90
53776;DHT22;44276;49.534;6.378;2024-01-25T03:08:45;8.50;99.90
53776;DHT22;44276;49.534;6.378;2024-01-25T03:11:13;8.60;99.90
53776;DHT22;44276;49.534;6.378;2024-01-25T03:13:41;8.60;99.90
53776;DHT22;44276;49.534;6.378;2024-01-25T03:16:11;8.50;99.90
53776;DHT22;44276;49.534;6.378;2024-01-25T03:18:39;8.60;99.90
53776;DHT22;44276;49.534;6.378;2024-01-25T03:21:07;8.50;99.90
53776;DHT22;44276;49.534;6.378;2024-01-25T03:23:35;8.50;99.90
53776;DHT22;44276;49.534;6.378;2024-01-25T03:26:04;8.40;99.90
53776;DHT22;44276;49.534;6.378;2024-01-25T03:28:33;8.40;99.90
53776;DHT22;44276;49.534;6.378;2024-01-25T03:31:02;8.40;99.90
53776;DHT22;44276;49.534;6.378;2024-01-25T03:33:32;8.30;99.90
53776;DHT22;44276;49.534;6.378;2024-01-25T03:36:02;8.20;99.90
53776;DHT22;44276;49.534;6.378;2024-01-25T03:38:30;8.00;99.90
53776;DHT22;44276;49.534;6.378;2024-01-25T03:40:58;7.90;99.90
53776;DHT22;44276;49.534;6.378;2024-01-25T03:43:27;7.80;99.90
53776;DHT22;44276;49.534;6.378;2024-01-25T03:46:08;7.60;99.90
53776;DHT22;44276;49.534;6.378;2024-01-25T03:48:38;7.50;99.90
53776;DHT22;44276;49.534;6.378;2024-01-25T03:51:06;7.40;99.90
53776;DHT22;44276;49.534;6.378;2024-01-25T03:53:35;7.30;99.90
53776;DHT22;44276;49.534;6.378;2024-01-25T03:56:04;7.10;99.90
53776;DHT22;44276;49.534;6.378;2024-01-25T03:58:38;7.00;99.90
53776;DHT22;44276;49.534;6.378;2024-01-25T04:01:06;7.10;99.90
53776;DHT22;44276;49.534;6.378;2024-01-25T04:03:35;7.10;99.90
53776;DHT22;44276;49.534;6.378;2024-01-25T04:06:05;6.90;99.90
53776;DHT22;44276;49.534;6.378;2024-01-25T04:08:33;6.70;99.90
53776;DHT22;44276;49.534;6.378;2024-01-25T04:11:01;6.70;99.90
53776;DHT22;44276;49.534;6.378;2024-01-25T04:13:29;6.70;99.90
53776;DHT22;44276;49.534;6.378;2024-01-25T04:15:58;6.90;99.90
53776;DHT22;44276;49.534;6.378;2024-01-25T04:18:26;6.90;99.90
53776;DHT22;44276;49.534;6.378;2024-01-25T04:20:55;6.80;99.90
53776;DHT22;44276;49.534;6.378;2024-01-25T04:23:24;6.70;99.90
53776;DHT22;44276;49.534;6.378;2024-01-25T04:25:52;6.60;99.90
53776;DHT22;44276;49.534;6.378;2024-01-25T04:28:22;6.50;99.90
53776;DHT22;44276;49.534;6.378;2024-01-25T04:30:50;6.30;99.90
53776;DHT22;44276;49.534;6.378;2024-01-25T04:33:18;6.30;99.90
53776;DHT22;44276;49.534;6.378;2024-01-25T04:35:47;6.40;99.90
53776;DHT22;44276;49.534;6.378;2024-01-25T04:38:15;6.30;99.90
53776;DHT22;44276;49.534;6.378;2024-01-25T04:40:45;6.10;99.90
53776;DHT22;44276;49.534;6.378;2024-01-25T04:43:13;6.00;99.90
53776;DHT22;44276;49.534;6.378;2024-01-25T04:45:42;5.80;99.90
53776;DHT22;44276;49.534;6.378;2024-01-25T04:48:10;5.60;99.90
53776;DHT22;44276;49.534;6.378;2024-01-25T04:50:39;5.40;99.90
53776;DHT22;44276;49.534;6.378;2024-01-25T04:53:07;5.10;99.90
53776;DHT22;44276;49.534;6.378;2024-01-25T04:55:35;5.00;99.90
53776;DHT22;44276;49.534;6.378;2024-01-25T04:58:05;4.80;99.90
53776;DHT22;44276;49.534;6.378;2024-01-25T05:00:33;4.60;99.90
53776;DHT22;44276;49.534;6.378;2024-01-25T05:03:04;4.50;99.90
53776;DHT22;44276;49.534;6.378;2024-01-25T05:05:32;4.40;99.90
53776;DHT22;44276;49.534;6.378;2024-01-25T05:08:01;4.30;99.90
53776;DHT22;44276;49.534;6.378;2024-01-25T05:10:29;4.30;99.90
53776;DHT22;44276;49.534;6.378;2024-01-25T05:12:57;4.10;99.90
53776;DHT22;44276;49.534;6.378;2024-01-25T05:15:27;4.30;99.90
53776;DHT22;44276;49.534;6.378;2024-01-25T05:17:55;4.30;99.90
53776;DHT22;44276;49.534;6.378;2024-01-25T05:20:24;4.30;99.90
53776;DHT22;44276;49.534;6.378;2024-01-25T05:22:58;4.10;99.90
53776;DHT22;44276;49.534;6.378;2024-01-25T05:25:27;4.20;99.90
53776;DHT22;44276;49.534;6.378;2024-01-25T05:27:56;4.20;99.90
53776;DHT22;44276;49.534;6.378;2024-01-25T05:30:27;3.90;99.90
53776;DHT22;44276;49.534;6.378;2024-01-25T05:32:56;3.70;99.90
53776;DHT22;44276;49.534;6.378;2024-01-25T05:35:25;3.60;99.90
53776;DHT22;44276;49.534;6.378;2024-01-25T05:37:54;3.70;99.90
53776;DHT22;44276;49.534;6.378;2024-01-25T05:40:22;3.70;99.90
53776;DHT22;44276;49.534;6.378;2024-01-25T05:42:50;3.50;99.90
53776;DHT22;44276;49.534;6.378;2024-01-25T05:45:19;3.30;99.90
53776;DHT22;44276;49.534;6.378;2024-01-25T05:47:49;3.20;99.90
53776;DHT22;44276;49.534;6.378;2024-01-25T05:50:18;3.00;99.90
53776;DHT22;44276;49.534;6.378;2024-01-25T05:52:47;3.00;99.90
53776;DHT22;44276;49.534;6.378;2024-01-25T05:55:16;2.90;99.90
53776;DHT22;44276;49.534;6.378;2024-01-25T05:57:45;2.80;99.90
53776;DHT22;44276;49.534;6.378;2024-01-25T06:00:13;2.80;99.90
53776;DHT22;44276;49.534;6.378;2024-01-25T06:02:48;2.70;99.90
53776;DHT22;44276;49.534;6.378;2024-01-25T06:05:17;2.70;99.90
53776;DHT22;44276;49.534;6.378;2024-01-25T06:07:46;2.60;99.90
53776;DHT22;44276;49.534;6.378;2024-01-25T06:10:17;2.50;99.90
53776;DHT22;44276;49.534;6.378;2024-01-25T06:12:45;2.40;99.90
53776;DHT22;44276;49.534;6.378;2024-01-25T06:15:14;2.30;99.90
53776;DHT22;44276;49.534;6.378;2024-01-25T06:17:42;2.20;99.90
53776;DHT22;44276;49.534;6.378;2024-01-25T06:20:12;2.10;99.90
53776;DHT22;44276;49.534;6.378;2024-01-25T06:22:40;2.20;99.90
53776;DHT22;44276;49.534;6.378;2024-01-25T06:25:09;2.30;99.90
53776;DHT22;44276;49.534;6.378;2024-01-25T06:27:37;2.30;99.90
53776;DHT22;44276;49.534;6.378;2024-01-25T06:30:06;2.40;99.90
53776;DHT22;44276;49.534;6.378;2024-01-25T06:32:35;2.30;99.90
53776;DHT22;44276;49.534;6.378;2024-01-25T06:35:05;2.50;99.90
53776;DHT22;44276;49.534;6.378;2024-01-25T06:37:36;2.40;99.90
53776;DHT22;44276;49.534;6.378;2024-01-25T06:40:05;2.30;99.90
53776;DHT22;44276;49.534;6.378;2024-01-25T06:42:34;2.10;99.90
53776;DHT22;44276;49.534;6.378;2024-01-25T06:45:03;1.90;99.90
53776;DHT22;44276;49.534;6.378;2024-01-25T06:47:32;2.00;99.90
53776;DHT22;44276;49.534;6.378;2024-01-25T06:50:00;1.90;99.90
53776;DHT22;44276;49.534;6.378;2024-01-25T06:52:29;1.90;99.90
53776;DHT22;44276;49.534;6.378;2024-01-25T06:54:59;2.00;99.90
53776;DHT22;44276;49.534;6.378;2024-01-25T06:57:28;2.10;99.90
53776;DHT22;44276;49.534;6.378;2024-01-25T06:59:56;2.10;99.90
53776;DHT22;44276;49.534;6.378;2024-01-25T07:02:26;2.00;99.90
53776;DHT22;44276;49.534;6.378;2024-01-25T07:04:54;1.90;99.90
53776;DHT22;44276;49.534;6.378;2024-01-25T07:07:24;1.80;99.90
53776;DHT22;44276;49.534;6.378;2024-01-25T07:09:52;1.90;99.90
53776;DHT22;44276;49.534;6.378;2024-01-25T07:12:22;2.10;99.90
53776;DHT22;44276;49.534;6.378;2024-01-25T07:14:50;2.10;99.90
53776;DHT22;44276;49.534;6.378;2024-01-25T07:17:19;2.00;99.90
53776;DHT22;44276;49.534;6.378;2024-01-25T07:19:47;1.90;99.90
53776;DHT22;44276;49.534;6.378;2024-01-25T07:22:16;2.00;99.90
53776;DHT22;44276;49.534;6.378;2024-01-25T07:24:45;2.00;99.90
53776;DHT22;44276;49.534;6.378;2024-01-25T07:27:13;1.90;99.90
53776;DHT22;44276;49.534;6.378;2024-01-25T07:29:44;1.90;99.90
53776;DHT22;44276;49.534;6.378;2024-01-25T07:32:13;1.80;99.90
53776;DHT22;44276;49.534;6.378;2024-01-25T07:34:41;1.70;99.90
53776;DHT22;44276;49.534;6.378;2024-01-25T07:37:10;1.70;99.90
53776;DHT22;44276;49.534;6.378;2024-01-25T07:39:39;1.70;99.90
53776;DHT22;44276;49.534;6.378;2024-01-25T07:42:07;1.60;99.90
53776;DHT22;44276;49.534;6.378;2024-01-25T07:44:36;1.60;99.90
53776;DHT22;44276;49.534;6.378;2024-01-25T07:47:06;1.60;99.90
53776;DHT22;44276;49.534;6.378;2024-01-25T07:49:34;1.60;99.90
53776;DHT22;44276;49.534;6.378;2024-01-25T07:52:03;1.70;99.90
53776;DHT22;44276;49.534;6.378;2024-01-25T07:54:31;1.70;99.90
53776;DHT22;44276;49.534;6.378;2024-01-25T07:57:00;1.70;99.90
53776;DHT22;44276;49.534;6.378;2024-01-25T07:59:28;1.90;99.90
53776;DHT22;44276;49.534;6.378;2024-01-25T08:01:56;1.80;99.90
53776;DHT22;44276;49.534;6.378;2024-01-25T08:04:27;1.70;99.90
53776;DHT22;44276;49.534;6.378;2024-01-25T08:06:56;1.70;99.90
53776;DHT22;44276;49.534;6.378;2024-01-25T08:09:24;1.70;99.90
53776;DHT22;44276;49.534;6.378;2024-01-25T08:11:53;1.90;99.90
53776;DHT22;44276;49.534;6.378;2024-01-25T08:14:21;2.10;99.90
53776;DHT22;44276;49.534;6.378;2024-01-25T08:16:49;2.30;99.90
53776;DHT22;44276;49.534;6.378;2024-01-25T08:19:18;2.40;99.90
53776;DHT22;44276;49.534;6.378;2024-01-25T08:21:48;2.60;99.90
53776;DHT22;44276;49.534;6.378;2024-01-25T08:24:16;2.70;99.90
53776;DHT22;44276;49.534;6.378;2024-01-25T08:26:45;2.90;99.90
53776;DHT22;44276;49.534;6.378;2024-01-25T08:29:13;3.10;99.90
53776;DHT22;44276;49.534;6.378;2024-01-25T08:31:41;3.20;99.90
53776;DHT22;44276;49.534;6.378;2024-01-25T08:34:10;3.40;99.90
53776;DHT22;44276;49.534;6.378;2024-01-25T08:36:38;3.40;99.90
53776;DHT22;44276;49.534;6.378;2024-01-25T08:39:08;3.50;99.90
53776;DHT22;44276;49.534;6.378;2024-01-25T08:41:37;3.60;99.90
53776;DHT22;44276;49.534;6.378;2024-01-25T08:44:07;3.80;99.90
53776;DHT22;44276;49.534;6.378;2024-01-25T08:46:36;4.00;99.90
53776;DHT22;44276;49.534;6.378;2024-01-25T08:49:05;4.40;99.90
53776;DHT22;44276;49.534;6.378;2024-01-25T08:51:36;4.60;99.90
53776;DHT22;44276;49.534;6.378;2024-01-25T08:54:04;4.80;99.90
53776;DHT22;44276;49.534;6.378;2024-01-25T08:56:34;5.20;99.90
53776;DHT22;44276;49.534;6.378;2024-01-25T08:59:02;5.30;99.90
53776;DHT22;44276;49.534;6.378;2024-01-25T09:01:30;5.30;99.90
53776;DHT22;44276;49.534;6.378;2024-01-25T09:04:00;5.50;99.90
53776;DHT22;44276;49.534;6.378;2024-01-25T09:06:30;6.10;99.90
53776;DHT22;44276;49.534;6.378;2024-01-25T09:08:59;6.30;99.90
53776;DHT22;44276;49.534;6.378;2024-01-25T09:11:27;6.60;99.90
53776;DHT22;44276;49.534;6.378;2024-01-25T09:13:57;6.70;99.90
53776;DHT22;44276;49.534;6.378;2024-01-25T09:16:25;7.00;99.90
53776;DHT22;44276;49.534;6.378;2024-01-25T09:18:53;7.60;99.90
53776;DHT22;44276;49.534;6.378;2024-01-25T09:21:22;8.20;99.90
53776;DHT22;44276;49.534;6.378;2024-01-25T09:23:50;9.00;99.90
53776;DHT22;44276;49.534;6.378;2024-01-25T09:26:18;10.10;99.90
53776;DHT22;44276;49.534;6.378;2024-01-25T09:28:47;11.20;99.90
53776;DHT22;44276;49.534;6.378;2024-01-25T09:31:18;12.10;99.90
53776;DHT22;44276;49.534;6.378;2024-01-25T09:33:47;13.00;99.90
53776;DHT22;44276;49.534;6.378;2024-01-25T09:36:16;13.30;99.90
53776;DHT22;44276;49.534;6.378;2024-01-25T09:38:45;13.60;99.90
53776;DHT22;44276;49.534;6.378;2024-01-25T09:41:14;13.70;99.90
53776;DHT22;44276;49.534;6.378;2024-01-25T09:43:42;14.40;99.90
53776;DHT22;44276;49.534;6.378;2024-01-25T09:46:13;15.10;99.90
53776;DHT22;44276;49.534;6.378;2024-01-25T09:48:45;15.20;89.00
53776;DHT22;44276;49.534;6.378;2024-01-25T09:51:15;15.20;87.00
53776;DHT22;44276;49.534;6.378;2024-01-25T09:53:45;14.50;76.20
53776;DHT22;44276;49.534;6.378;2024-01-25T09:56:20;13.60;82.90
53776;DHT22;44276;49.534;6.378;2024-01-25T09:58:50;13.50;86.80
53776;DHT22;44276;49.534;6.378;2024-01-25T10:01:20;13.50;84.50
53776;DHT22;44276;49.534;6.378;2024-01-25T10:03:49;13.30;91.60
53776;DHT22;44276;49.534;6.378;2024-01-25T10:06:18;13.40;89.40
53776;DHT22;44276;49.534;6.378;2024-01-25T10:08:47;13.40;93.80
53776;DHT22;44276;49.534;6.378;2024-01-25T10:11:16;13.00;90.70
53776;DHT22;44276;49.534;6.378;2024-01-25T10:13:46;13.10;99.90
53776;DHT22;44276;49.534;6.378;2024-01-25T10:16:17;13.50;92.20
53776;DHT22;44276;49.534;6.378;2024-01-25T10:18:47;14.00;89.70
53776;DHT22;44276;49.534;6.378;2024-01-25T10:21:18;14.50;78.70
53776;DHT22;44276;49.534;6.378;2024-01-25T10:23:48;15.00;73.90
53776;DHT22;44276;49.534;6.378;2024-01-25T10:26:18;15.50;68.10
53776;DHT22;44276;49.534;6.378;2024-01-25T10:28:51;15.40;64.90
53776;DHT22;44276;49.534;6.378;2024-01-25T10:31:28;15.10;67.10
53776;DHT22;44276;49.534;6.378;2024-01-25T10:33:59;14.60;70.10
53776;DHT22;44276;49.534;6.378;2024-01-25T10:36:30;14.00;74.80
53776;DHT22;44276;49.534;6.378;2024-01-25T10:39:03;13.60;87.20
53776;DHT22;44276;49.534;6.378;2024-01-25T10:41:32;13.30;92.60
53776;DHT22;44276;49.534;6.378;2024-01-25T10:44:02;12.90;99.80
53776;DHT22;44276;49.534;6.378;2024-01-25T10:46:34;12.80;98.60
53776;DHT22;44276;49.534;6.378;2024-01-25T10:49:03;12.70;99.50
53776;DHT22;44276;49.534;6.378;2024-01-25T10:51:33;12.90;99.90
53776;DHT22;44276;49.534;6.378;2024-01-25T10:54:02;13.00;95.30
53776;DHT22;44276;49.534;6.378;2024-01-25T10:56:34;13.00;96.60
53776;DHT22;44276;49.534;6.378;2024-01-25T10:59:04;13.30;94.70
53776;DHT22;44276;49.534;6.378;2024-01-25T11:01:33;13.30;92.30
53776;DHT22;44276;49.534;6.378;2024-01-25T11:04:03;13.60;92.10
53776;DHT22;44276;49.534;6.378;2024-01-25T11:06:42;13.50;90.70
53776;DHT22;44276;49.534;6.378;2024-01-25T11:09:17;13.40;90.40
53776;DHT22;44276;49.534;6.378;2024-01-25T11:11:47;13.30;93.00
53776;DHT22;44276;49.534;6.378;2024-01-25T11:14:16;13.00;94.60
53776;DHT22;44276;49.534;6.378;2024-01-25T11:16:46;12.60;99.80
53776;DHT22;44276;49.534;6.378;2024-01-25T11:19:19;12.20;99.90
53776;DHT22;44276;49.534;6.378;2024-01-25T11:21:52;11.90;99.90
53776;DHT22;44276;49.534;6.378;2024-01-25T11:24:21;11.70;99.90
53776;DHT22;44276;49.534;6.378;2024-01-25T11:26:54;11.40;99.90
53776;DHT22;44276;49.534;6.378;2024-01-25T11:29:22;11.10;99.90
53776;DHT22;44276;49.534;6.378;2024-01-25T11:31:52;10.90;99.90
53776;DHT22;44276;49.534;6.378;2024-01-25T11:34:20;10.70;99.90
53776;DHT22;44276;49.534;6.378;2024-01-25T11:36:51;10.50;99.90
53776;DHT22;44276;49.534;6.378;2024-01-25T11:39:20;10.50;99.90
53776;DHT22;44276;49.534;6.378;2024-01-25T11:41:51;10.50;99.90
53776;DHT22;44276;49.534;6.378;2024-01-25T11:44:20;10.60;99.90
53776;DHT22;44276;49.534;6.378;2024-01-25T11:46:53;10.60;99.90
53776;DHT22;44276;49.534;6.378;2024-01-25T11:49:23;10.70;99.90
53776;DHT22;44276;49.534;6.378;2024-01-25T11:51:53;10.80;99.90
53776;DHT22;44276;49.534;6.378;2024-01-25T11:54:22;10.70;99.90
53776;DHT22;44276;49.534;6.378;2024-01-25T11:56:50;10.60;99.90
53776;DHT22;44276;49.534;6.378;2024-01-25T11:59:18;10.50;99.90
53776;DHT22;44276;49.534;6.378;2024-01-25T12:01:47;10.50;99.90
53776;DHT22;44276;49.534;6.378;2024-01-25T12:04:17;10.40;99.90
53776;DHT22;44276;49.534;6.378;2024-01-25T12:06:47;10.30;99.90
53776;DHT22;44276;49.534;6.378;2024-01-25T12:09:18;10.10;99.90
53776;DHT22;44276;49.534;6.378;2024-01-25T12:11:49;10.00;99.90
53776;DHT22;44276;49.534;6.378;2024-01-25T12:14:18;10.00;99.90
53776;DHT22;44276;49.534;6.378;2024-01-25T12:16:46;9.90;99.90
53776;DHT22;44276;49.534;6.378;2024-01-25T12:19:16;9.90;99.90
53776;DHT22;44276;49.534;6.378;2024-01-25T12:21:45;9.90;99.90
53776;DHT22;44276;49.534;6.378;2024-01-25T12:24:13;9.90;99.90
53776;DHT22;44276;49.534;6.378;2024-01-25T12:26:43;10.00;99.90
53776;DHT22;44276;49.534;6.378;2024-01-25T12:29:11;9.90;99.90
53776;DHT22;44276;49.534;6.378;2024-01-25T12:31:40;10.00;99.90
53776;DHT22;44276;49.534;6.378;2024-01-25T12:34:13;10.00;99.90
53776;DHT22;44276;49.534;6.378;2024-01-25T12:36:43;10.10;99.90
53776;DHT22;44276;49.534;6.378;2024-01-25T12:39:12;10.10;99.90
53776;DHT22;44276;49.534;6.378;2024-01-25T12:41:47;10.10;99.90
53776;DHT22;44276;49.534;6.378;2024-01-25T12:44:17;10.00;99.90
53776;DHT22;44276;49.534;6.378;2024-01-25T12:46:46;9.90;99.90
53776;DHT22;44276;49.534;6.378;2024-01-25T12:49:14;10.00;99.90
53776;DHT22;44276;49.534;6.378;2024-01-25T12:51:43;10.00;99.90
53776;DHT22;44276;49.534;6.378;2024-01-25T12:54:12;10.00;99.90
53776;DHT22;44276;49.534;6.378;2024-01-25T12:56:40;10.10;99.90
53776;DHT22;44276;49.534;6.378;2024-01-25T12:59:11;10.00;99.90
53776;DHT22;44276;49.534;6.378;2024-01-25T13:01:39;9.90;99.90
53776;DHT22;44276;49.534;6.378;2024-01-25T13:04:08;9.80;99.90
53776;DHT22;44276;49.534;6.378;2024-01-25T13:06:37;9.80;99.90
53776;DHT22;44276;49.534;6.378;2024-01-25T13:09:05;9.80;99.90
53776;DHT22;44276;49.534;6.378;2024-01-25T13:11:34;9.80;99.90
53776;DHT22;44276;49.534;6.378;2024-01-25T13:14:03;9.80;99.90
53776;DHT22;44276;49.534;6.378;2024-01-25T13:16:32;9.80;99.90
53776;DHT22;44276;49.534;6.378;2024-01-25T13:19:01;9.80;99.90
53776;DHT22;44276;49.534;6.378;2024-01-25T13:21:30;9.90;99.90
53776;DHT22;44276;49.534;6.378;2024-01-25T13:24:00;9.90;99.90
53776;DHT22;44276;49.534;6.378;2024-01-25T13:26:28;9.80;99.90
53776;DHT22;44276;49.534;6.378;2024-01-25T13:28:57;9.70;99.90
53776;DHT22;44276;49.534;6.378;2024-01-25T13:31:25;9.60;99.90
53776;DHT22;44276;49.534;6.378;2024-01-25T13:33:55;9.60;99.90
53776;DHT22;44276;49.534;6.378;2024-01-25T13:36:23;9.50;99.90
53776;DHT22;44276;49.534;6.378;2024-01-25T13:38:52;9.50;99.90
53776;DHT22;44276;49.534;6.378;2024-01-25T13:41:20;9.50;99.90
53776;DHT22;44276;49.534;6.378;2024-01-25T13:43:48;9.50;99.90
53776;DHT22;44276;49.534;6.378;2024-01-25T13:46:17;9.50;99.90
53776;DHT22;44276;49.534;6.378;2024-01-25T13:48:48;9.50;99.90
53776;DHT22;44276;49.534;6.378;2024-01-25T13:51:17;9.50;99.90
53776;DHT22;44276;49.534;6.378;2024-01-25T13:53:46;9.60;99.90
53776;DHT22;44276;49.534;6.378;2024-01-25T13:56:16;9.60;99.90
53776;DHT22;44276;49.534;6.378;2024-01-25T13:58:44;9.70;99.90
53776;DHT22;44276;49.534;6.378;2024-01-25T14:01:12;9.60;99.90
53776;DHT22;44276;49.534;6.378;2024-01-25T14:03:41;9.50;99.90
53776;DHT22;44276;49.534;6.378;2024-01-25T14:06:11;9.50;99.90
53776;DHT22;44276;49.534;6.378;2024-01-25T14:08:41;9.40;99.90
53776;DHT22;44276;49.534;6.378;2024-01-25T14:11:10;9.40;99.90
53776;DHT22;44276;49.534;6.378;2024-01-25T14:13:38;9.40;99.90
53776;DHT22;44276;49.534;6.378;2024-01-25T14:16:07;9.40;99.90
53776;DHT22;44276;49.534;6.378;2024-01-25T14:18:39;9.30;99.90
53776;DHT22;44276;49.534;6.378;2024-01-25T14:21:08;9.40;99.90
53776;DHT22;44276;49.534;6.378;2024-01-25T14:23:38;9.30;99.90
53776;DHT22;44276;49.534;6.378;2024-01-25T14:26:08;9.30;99.90
53776;DHT22;44276;49.534;6.378;2024-01-25T14:28:36;9.30;99.90
53776;DHT22;44276;49.534;6.378;2024-01-25T14:31:05;9.30;99.90
53776;DHT22;44276;49.534;6.378;2024-01-25T14:33:35;9.20;99.90
53776;DHT22;44276;49.534;6.378;2024-01-25T14:36:07;9.20;99.90
53776;DHT22;44276;49.534;6.378;2024-01-25T14:38:35;9.10;99.90
53776;DHT22;44276;49.534;6.378;2024-01-25T14:41:03;9.20;99.90
53776;DHT22;44276;49.534;6.378;2024-01-25T14:43:38;9.10;99.90
53776;DHT22;44276;49.534;6.378;2024-01-25T14:46:07;9.10;99.90
53776;DHT22;44276;49.534;6.378;2024-01-25T14:48:35;9.10;99.90
53776;DHT22;44276;49.534;6.378;2024-01-25T14:51:04;9.10;99.90
53776;DHT22;44276;49.534;6.378;2024-01-25T14:53:32;9.20;99.90
53776;DHT22;44276;49.534;6.378;2024-01-25T14:56:00;9.20;99.90
53776;DHT22;44276;49.534;6.378;2024-01-25T14:58:30;9.20;99.90
53776;DHT22;44276;49.534;6.378;2024-01-25T15:00:59;9.30;99.90
53776;DHT22;44276;49.534;6.378;2024-01-25T15:03:27;9.30;99.90
53776;DHT22;44276;49.534;6.378;2024-01-25T15:05:56;9.30;99.90
53776;DHT22;44276;49.534;6.378;2024-01-25T15:08:24;9.30;99.90
53776;DHT22;44276;49.534;6.378;2024-01-25T15:10:53;9.30;99.90
53776;DHT22;44276;49.534;6.378;2024-01-25T15:13:21;9.20;99.90
53776;DHT22;44276;49.534;6.378;2024-01-25T15:15:51;9.20;99.90
53776;DHT22;44276;49.534;6.378;2024-01-25T15:18:19;9.20;99.90
53776;DHT22;44276;49.534;6.378;2024-01-25T15:20:49;9.20;99.90
53776;DHT22;44276;49.534;6.378;2024-01-25T15:23:18;9.20;99.90
53776;DHT22;44276;49.534;6.378;2024-01-25T15:25:46;9.10;99.90
53776;DHT22;44276;49.534;6.378;2024-01-25T15:28:14;9.10;99.90
53776;DHT22;44276;49.534;6.378;2024-01-25T15:30:47;9.10;99.90
53776;DHT22;44276;49.534;6.378;2024-01-25T15:33:17;9.10;99.90
53776;DHT22;44276;49.534;6.378;2024-01-25T15:35:45;9.10;99.90
53776;DHT22;44276;49.534;6.378;2024-01-25T15:38:13;9.10;99.90
53776;DHT22;44276;49.534;6.378;2024-01-25T15:40:44;9.10;99.90
53776;DHT22;44276;49.534;6.378;2024-01-25T15:43:13;9.10;99.90
53776;DHT22;44276;49.534;6.378;2024-01-25T15:45:41;9.00;99.90
53776;DHT22;44276;49.534;6.378;2024-01-25T15:48:09;9.00;99.90
53776;DHT22;44276;49.534;6.378;2024-01-25T15:50:39;9.00;99.90
53776;DHT22;44276;49.534;6.378;2024-01-25T15:53:07;9.00;99.90
53776;DHT22;44276;49.534;6.378;2024-01-25T15:55:38;9.00;99.90